Observation data for Abernathy on 06/26/2019      Previous  Date  Next       Current Mesonet Observations  Soil Data  Daily Summary Page  Observations in Plain Language
KARS 260500Z 14012G17KT 23/13 A3012 RMK A01 T02300130  RH  055%=      5-min Rain = 0
KARS 260505Z 13014G20KT 23/13 A3013 RMK A01 T02320131  RH  055%=      5-min Rain = 0
KARS 260510Z 12014KT 23/13 A3013 RMK A01 T02330131  RH  055%=      5-min Rain = 0
KARS 260515Z 12014KT 23/13 A3013 RMK A01 T02320132  RH  056%=      5-min Rain = 0
KARS 260520Z 12015KT 23/13 A3012 RMK A01 T02320133  RH  056%=      5-min Rain = 0
KARS 260525Z 12014KT 23/13 A3012 RMK A01 T02310133  RH  056%=      5-min Rain = 0
KARS 260530Z 11015KT 23/13 A3012 RMK A01 T02310133  RH  056%=      5-min Rain = 0
KARS 260535Z 11016KT 23/13 A3012 RMK A01 T02310133  RH  056%=      5-min Rain = 0
KARS 260540Z 11016KT 23/13 A3012 RMK A01 T02300133  RH  057%=      5-min Rain = 0
KARS 260545Z 11015KT 23/13 A3012 RMK A01 T02300133  RH  057%=      5-min Rain = 0
KARS 260550Z 11014G19KT 23/13 A3012 RMK A01 T02290133  RH  057%=      5-min Rain = 0
KARS 260555Z 11015KT 23/13 A3012 RMK A01 T02290134  RH  057%=      5-min Rain = 0
KARS 260600Z 11016KT 23/14 A3012 RMK A01 T02280135  RH  058%=      5-min Rain = 0
KARS 260605Z 10016KT 23/14 A3011 RMK A01 T02280136  RH  059%=      5-min Rain = 0
KARS 260610Z 11016KT 23/14 A3011 RMK A01 T02280136  RH  059%=      5-min Rain = 0
KARS 260615Z 11015KT 23/14 A3011 RMK A01 T02270137  RH  059%=      5-min Rain = 0
KARS 260620Z 11014KT 23/14 A3012 RMK A01 T02260137  RH  059%=      5-min Rain = 0
KARS 260625Z 12012KT 23/14 A3012 RMK A01 T02250136  RH  060%=      5-min Rain = 0
KARS 260630Z 13011KT 22/14 A3012 RMK A01 T02240137  RH  060%=      5-min Rain = 0
KARS 260635Z 13012KT 22/14 A3012 RMK A01 T02230138  RH  061%=      5-min Rain = 0
KARS 260640Z 14012KT 22/14 A3012 RMK A01 T02220140  RH  062%=      5-min Rain = 0
KARS 260645Z 13012KT 22/14 A3011 RMK A01 T02230141  RH  062%=      5-min Rain = 0
KARS 260650Z 13012KT 22/14 A3011 RMK A01 T02220142  RH  063%=      5-min Rain = 0
KARS 260655Z 13012KT 22/14 A3011 RMK A01 T02220143  RH  063%=      5-min Rain = 0
KARS 260700Z 13011KT 22/14 A3011 RMK A01 T02200144  RH  065%=      5-min Rain = 0
KARS 260705Z 13011KT 22/15 A301 RMK A01 T02190145  RH  065%=      5-min Rain = 0
KARS 260710Z 13012KT 22/15 A301 RMK A01 T02200147  RH  066%=      5-min Rain = 0
KARS 260715Z 12012KT 22/15 A301 RMK A01 T02210147  RH  066%=      5-min Rain = 0
KARS 260720Z 12013KT 22/15 A301 RMK A01 T02220148  RH  066%=      5-min Rain = 0
KARS 260725Z 12013KT 22/15 A301 RMK A01 T02210148  RH  066%=      5-min Rain = 0
KARS 260730Z 12013KT 22/15 A3009 RMK A01 T02210149  RH  067%=      5-min Rain = 0
KARS 260735Z 13014KT 22/15 A3009 RMK A01 T02200150  RH  068%=      5-min Rain = 0
KARS 260740Z 14014KT 22/15 A3009 RMK A01 T02210152  RH  068%=      5-min Rain = 0
KARS 260745Z 14015KT 22/15 A3008 RMK A01 T02220153  RH  068%=      5-min Rain = 0
KARS 260750Z 14015KT 22/15 A3008 RMK A01 T02230154  RH  068%=      5-min Rain = 0
KARS 260755Z 15015KT 22/16 A3008 RMK A01 T02230155  RH  068%=      5-min Rain = 0
KARS 260800Z 17016KT 22/16 A3008 RMK A01 T02240155  RH  068%=      5-min Rain = 0
KARS 260805Z 18016G21KT 23/16 A3007 RMK A01 T02250157  RH  068%=      5-min Rain = 0
KARS 260810Z 18015G20KT 22/16 A3007 RMK A01 T02230158  RH  070%=      5-min Rain = 0
KARS 260815Z 18015KT 22/16 A3007 RMK A01 T02210157  RH  070%=      5-min Rain = 0
KARS 260820Z 18014KT 22/16 A3008 RMK A01 T02210158  RH  071%=      5-min Rain = 0
KARS 260825Z 17012KT 22/16 A3008 RMK A01 T02190158  RH  071%=      5-min Rain = 0
KARS 260830Z 17012KT 22/16 A3008 RMK A01 T02190158  RH  072%=      5-min Rain = 0
KARS 260835Z 17012KT 22/16 A3008 RMK A01 T02170158  RH  072%=      5-min Rain = 0
KARS 260840Z 17011KT 22/16 A3008 RMK A01 T02160158  RH  073%=      5-min Rain = 0
KARS 260845Z 16010KT 21/16 A3009 RMK A01 T02140158  RH  074%=      5-min Rain = 0
KARS 260850Z 16009KT 21/16 A3009 RMK A01 T02130158  RH  074%=      5-min Rain = 0
KARS 260855Z 16009KT 21/16 A301 RMK A01 T02110158  RH  075%=      5-min Rain = 0
KARS 260900Z 17009KT 21/16 A3009 RMK A01 T02090158  RH  076%=      5-min Rain = 0
KARS 260905Z 19009KT 21/16 A3009 RMK A01 T02060158  RH  078%=      5-min Rain = 0
KARS 260910Z 19009KT 20/16 A3008 RMK A01 T02020159  RH  080%=      5-min Rain = 0
KARS 260915Z 20009KT 20/16 A3008 RMK A01 T02000160  RH  081%=      5-min Rain = 0
KARS 260920Z 21010KT 20/16 A3007 RMK A01 T01990160  RH  082%=      5-min Rain = 0
KARS 260925Z 20010KT 20/16 A3007 RMK A01 T01990160  RH  082%=      5-min Rain = 0
KARS 260930Z 20009KT 20/16 A3007 RMK A01 T01970159  RH  082%=      5-min Rain = 0
KARS 260935Z 20008KT 20/16 A3007 RMK A01 T01950159  RH  084%=      5-min Rain = 0
KARS 260940Z 19008KT 19/16 A3008 RMK A01 T01940159  RH  084%=      5-min Rain = 0
KARS 260945Z 19008KT 19/16 A3008 RMK A01 T01920159  RH  085%=      5-min Rain = 0
KARS 260950Z 20009KT 19/16 A3008 RMK A01 T01940159  RH  084%=      5-min Rain = 0
KARS 260955Z 20009KT 20/16 A3007 RMK A01 T01950159  RH  084%=      5-min Rain = 0
KARS 261000Z 20009KT 19/16 A3008 RMK A01 T01940159  RH  084%=      5-min Rain = 0
KARS 261005Z 19008KT 19/16 A3008 RMK A01 T01930159  RH  084%=      5-min Rain = 0
KARS 261010Z 20008KT 19/16 A3008 RMK A01 T01930159  RH  085%=      5-min Rain = 0
KARS 261015Z 20008KT 19/16 A3008 RMK A01 T01930159  RH  085%=      5-min Rain = 0
KARS 261020Z 20007KT 19/16 A3008 RMK A01 T01930159  RH  085%=      5-min Rain = 0
KARS 261025Z 19007KT 19/16 A3008 RMK A01 T01920158  RH  085%=      5-min Rain = 0
KARS 261030Z 20007KT 19/16 A3008 RMK A01 T01900157  RH  085%=      5-min Rain = 0
KARS 261035Z 21008KT 19/16 A3008 RMK A01 T01910158  RH  085%=      5-min Rain = 0
KARS 261040Z 21009KT 19/16 A3008 RMK A01 T01910157  RH  084%=      5-min Rain = 0
KARS 261045Z 21009KT 19/16 A3009 RMK A01 T01920157  RH  084%=      5-min Rain = 0
KARS 261050Z 21009KT 19/16 A3009 RMK A01 T01920157  RH  084%=      5-min Rain = 0
KARS 261055Z 21009KT 19/16 A3009 RMK A01 T01920157  RH  084%=      5-min Rain = 0
KARS 261100Z 21010KT 19/16 A3009 RMK A01 T01940157  RH  083%=      5-min Rain = 0
KARS 261105Z 21010KT 20/16 A3009 RMK A01 T01950158  RH  083%=      5-min Rain = 0
KARS 261110Z 21010KT 20/16 A3009 RMK A01 T01960158  RH  083%=      5-min Rain = 0
KARS 261115Z 21010KT 20/16 A3009 RMK A01 T01960158  RH  082%=      5-min Rain = 0
KARS 261120Z 21009KT 20/16 A3009 RMK A01 T01960158  RH  082%=      5-min Rain = 0
KARS 261125Z 21009KT 20/16 A301 RMK A01 T01960158  RH  082%=      5-min Rain = 0
KARS 261130Z 21009KT 20/16 A301 RMK A01 T01950158  RH  083%=      5-min Rain = 0
KARS 261135Z 21009KT 20/16 A301 RMK A01 T01950158  RH  083%=      5-min Rain = 0
KARS 261140Z 20008KT 19/16 A301 RMK A01 T01940159  RH  084%=      5-min Rain = 0
KARS 261145Z 20008KT 19/16 A3011 RMK A01 T01930159  RH  084%=      5-min Rain = 0
KARS 261150Z 20009KT 19/16 A3011 RMK A01 T01920159  RH  085%=      5-min Rain = 0
KARS 261155Z 20008KT 19/16 A3011 RMK A01 T01930159  RH  085%=      5-min Rain = 0
KARS 261200Z 20007KT 19/16 A3011 RMK A01 T01930160  RH  085%=      5-min Rain = 0
KARS 261205Z 20008KT 19/16 A3011 RMK A01 T01930160  RH  085%=      5-min Rain = 0
KARS 261210Z 20007KT 19/16 A3012 RMK A01 T01940160  RH  085%=      5-min Rain = 0
KARS 261215Z 19007KT 20/16 A3012 RMK A01 T01950160  RH  085%=      5-min Rain = 0
KARS 261220Z 20007KT 20/16 A3012 RMK A01 T01950160  RH  084%=      5-min Rain = 0
KARS 261225Z 20007KT 20/16 A3012 RMK A01 T01970161  RH  084%=      5-min Rain = 0
KARS 261230Z 20008KT 20/16 A3012 RMK A01 T02000162  RH  083%=      5-min Rain = 0
KARS 261235Z 20008KT 20/16 A3012 RMK A01 T02020163  RH  082%=      5-min Rain = 0
KARS 261240Z 20008KT 20/16 A3012 RMK A01 T02040163  RH  081%=      5-min Rain = 0
KARS 261245Z 20007KT 21/16 A3012 RMK A01 T02060164  RH  080%=      5-min Rain = 0
KARS 261250Z 20007KT 21/17 A3013 RMK A01 T02080165  RH  080%=      5-min Rain = 0
KARS 261255Z 20008KT 21/16 A3013 RMK A01 T02100164  RH  079%=      5-min Rain = 0
KARS 261300Z 20008KT 21/17 A3013 RMK A01 T02120165  RH  078%=      5-min Rain = 0
KARS 261305Z 20010KT 21/17 A3013 RMK A01 T02130165  RH  077%=      5-min Rain = 0
KARS 261310Z 20010KT 22/17 A3013 RMK A01 T02150165  RH  077%=      5-min Rain = 0
KARS 261315Z 20009KT 22/17 A3013 RMK A01 T02160166  RH  077%=      5-min Rain = 0
KARS 261320Z 19011KT 22/17 A3013 RMK A01 T02190166  RH  076%=      5-min Rain = 0
KARS 261325Z 20012KT 22/17 A3014 RMK A01 T02200166  RH  075%=      5-min Rain = 0
KARS 261330Z 20013KT 22/17 A3014 RMK A01 T02210166  RH  074%=      5-min Rain = 0
KARS 261335Z 20013KT 22/17 A3014 RMK A01 T02230166  RH  074%=      5-min Rain = 0
KARS 261340Z 20013KT 22/17 A3014 RMK A01 T02240167  RH  073%=      5-min Rain = 0
KARS 261345Z 20012KT 23/17 A3014 RMK A01 T02280168  RH  073%=      5-min Rain = 0
KARS 261350Z 21014KT 23/17 A3014 RMK A01 T02290168  RH  072%=      5-min Rain = 0
KARS 261355Z 21014KT 23/17 A3015 RMK A01 T02310168  RH  071%=      5-min Rain = 0
KARS 261400Z 21014KT 23/17 A3015 RMK A01 T02320168  RH  071%=      5-min Rain = 0
KARS 261405Z 21015KT 23/17 A3015 RMK A01 T02310167  RH  071%=      5-min Rain = 0
KARS 261410Z 21014KT 23/17 A3015 RMK A01 T02340169  RH  070%=      5-min Rain = 0
KARS 261415Z 20015KT 24/17 A3015 RMK A01 T02350169  RH  070%=      5-min Rain = 0
KARS 261420Z 20015G20KT 24/17 A3015 RMK A01 T02380170  RH  069%=      5-min Rain = 0
KARS 261425Z 20015KT 24/17 A3015 RMK A01 T02390170  RH  069%=      5-min Rain = 0
KARS 261430Z 20014KT 24/17 A3015 RMK A01 T02420171  RH  068%=      5-min Rain = 0
KARS 261435Z 20015KT 24/17 A3015 RMK A01 T02420170  RH  067%=      5-min Rain = 0
KARS 261440Z 20014KT 25/17 A3015 RMK A01 T02450170  RH  066%=      5-min Rain = 0
KARS 261445Z 20015KT 25/17 A3015 RMK A01 T02470169  RH  065%=      5-min Rain = 0
KARS 261450Z 21014KT 25/17 A3015 RMK A01 T02470167  RH  064%=      5-min Rain = 0
KARS 261455Z 20013KT 25/17 A3015 RMK A01 T02510169  RH  063%=      5-min Rain = 0
KARS 261500Z 19014G19KT 25/17 A3015 RMK A01 T02510168  RH  063%=      5-min Rain = 0
KARS 261505Z 20014KT 25/17 A3015 RMK A01 T02510167  RH  063%=      5-min Rain = 0
KARS 261510Z 20014KT 26/17 A3015 RMK A01 T02550167  RH  061%=      5-min Rain = 0
KARS 261515Z 21011KT 26/17 A3015 RMK A01 T02570168  RH  061%=      5-min Rain = 0
KARS 261520Z 21011KT 26/17 A3015 RMK A01 T02580166  RH  059%=      5-min Rain = 0
KARS 261525Z 21013KT 26/16 A3015 RMK A01 T02600163  RH  058%=      5-min Rain = 0
KARS 261530Z 21012KT 26/16 A3015 RMK A01 T02630163  RH  057%=      5-min Rain = 0
KARS 261535Z 21011G16KT 26/16 A3015 RMK A01 T02640162  RH  056%=      5-min Rain = 0
KARS 261540Z 21013KT 27/16 A3015 RMK A01 T02650161  RH  055%=      5-min Rain = 0
KARS 261545Z 20013KT 27/16 A3015 RMK A01 T02680157  RH  053%=      5-min Rain = 0
KARS 261550Z 20012KT 27/16 A3015 RMK A01 T02700158  RH  053%=      5-min Rain = 0
KARS 261555Z 20012G17KT 27/16 A3015 RMK A01 T02720158  RH  052%=      5-min Rain = 0
KARS 261600Z 20013KT 27/16 A3015 RMK A01 T02740156  RH  051%=      5-min Rain = 0
KARS 261605Z 20011KT 28/16 A3015 RMK A01 T02780158  RH  050%=      5-min Rain = 0
KARS 261610Z 20012KT 28/16 A3015 RMK A01 T02780157  RH  050%=      5-min Rain = 0
KARS 261615Z 21012G18KT 28/16 A3015 RMK A01 T02810159  RH  050%=      5-min Rain = 0
KARS 261620Z 21013KT 28/16 A3015 RMK A01 T02820158  RH  049%=      5-min Rain = 0
KARS 261625Z 20013G18KT 28/16 A3015 RMK A01 T02800157  RH  050%=      5-min Rain = 0
KARS 261630Z 22011KT 28/16 A3015 RMK A01 T02830158  RH  049%=      5-min Rain = 0
KARS 261635Z 22012G18KT 28/16 A3015 RMK A01 T02820157  RH  049%=      5-min Rain = 0
KARS 261640Z 21010KT 28/16 A3015 RMK A01 T02830158  RH  049%=      5-min Rain = 0
KARS 261645Z 22012KT 29/16 A3015 RMK A01 T02870159  RH  048%=      5-min Rain = 0
KARS 261650Z 21010KT 28/16 A3015 RMK A01 T02830157  RH  049%=      5-min Rain = 0
KARS 261655Z 21011KT 29/16 A3015 RMK A01 T02870156  RH  047%=      5-min Rain = 0
KARS 261700Z 22011KT 29/16 A3015 RMK A01 T02880156  RH  047%=      5-min Rain = 0
KARS 261705Z 21010KT 29/16 A3016 RMK A01 T02880156  RH  047%=      5-min Rain = 0
KARS 261710Z 19010KT 29/16 A3016 RMK A01 T02930158  RH  046%=      5-min Rain = 0
KARS 261715Z 19010G17KT 29/15 A3016 RMK A01 T02900153  RH  045%=      5-min Rain = 0
KARS 261720Z 20009G15KT 30/16 A3015 RMK A01 T02950156  RH  045%=      5-min Rain = 0
KARS 261725Z 18012G17KT 30/15 A3016 RMK A01 T02960150  RH  043%=      5-min Rain = 0
KARS 261730Z 18011G16KT 30/15 A3016 RMK A01 T03000150  RH  042%=      5-min Rain = 0
KARS 261735Z 17012G17KT 30/14 A3016 RMK A01 T03000141  RH  040%=      5-min Rain = 0
KARS 261740Z 18012G17KT 30/14 A3016 RMK A01 T02980142  RH  040%=      5-min Rain = 0
KARS 261745Z 17011G16KT 30/14 A3016 RMK A01 T03010144  RH  040%=      5-min Rain = 0
KARS 261750Z 20011KT 30/15 A3016 RMK A01 T03020152  RH  042%=      5-min Rain = 0
KARS 261755Z 19010G15KT 30/15 A3016 RMK A01 T03040153  RH  042%=      5-min Rain = 0
KARS 261800Z 19013G19KT 31/14 A3016 RMK A01 T03070141  RH  038%=      5-min Rain = 0
KARS 261805Z 17012KT 30/14 A3016 RMK A01 T03040140  RH  038%=      5-min Rain = 0
KARS 261810Z 18010G15KT 31/14 A3016 RMK A01 T03070143  RH  039%=      5-min Rain = 0
KARS 261815Z 17012G19KT 31/15 A3015 RMK A01 T03080147  RH  039%=      5-min Rain = 0
KARS 261820Z 19012G17KT 31/15 A3015 RMK A01 T03080146  RH  039%=      5-min Rain = 0
KARS 261825Z 17013G18KT 31/14 A3015 RMK A01 T03110143  RH  038%=      5-min Rain = 0
KARS 261830Z 18013G23KT 31/14 A3015 RMK A01 T03080141  RH  038%=      5-min Rain = 0
KARS 261835Z 18013G18KT 31/14 A3015 RMK A01 T03100137  RH  036%=      5-min Rain = 0
KARS 261840Z 18014G19KT 31/14 A3015 RMK A01 T03110140  RH  037%=      5-min Rain = 0
KARS 261845Z 16013G20KT 31/14 A3014 RMK A01 T03120136  RH  036%=      5-min Rain = 0
KARS 261850Z 16015KT 32/13 A3015 RMK A01 T03150134  RH  035%=      5-min Rain = 0
KARS 261855Z 16018G24KT 32/13 A3015 RMK A01 T03160130  RH  033%=      5-min Rain = 0
KARS 261900Z 17013G20KT 32/14 A3015 RMK A01 T03150135  RH  035%=      5-min Rain = 0
KARS 261905Z 19013G20KT 32/14 A3014 RMK A01 T03170138  RH  035%=      5-min Rain = 0
KARS 261910Z 19016G22KT 32/14 A3014 RMK A01 T03160144  RH  037%=      5-min Rain = 0
KARS 261915Z 19013G18KT 32/14 A3014 RMK A01 T03160144  RH  037%=      5-min Rain = 0
KARS 261920Z 19013G19KT 32/14 A3014 RMK A01 T03160142  RH  036%=      5-min Rain = 0
KARS 261925Z 17014G19KT 32/14 A3014 RMK A01 T03190141  RH  036%=      5-min Rain = 0
KARS 261930Z 18013G19KT 32/15 A3014 RMK A01 T03180146  RH  037%=      5-min Rain = 0
KARS 261935Z 16017G23KT 32/13 A3014 RMK A01 T03220132  RH  033%=      5-min Rain = 0
KARS 261940Z 17014G22KT 32/14 A3014 RMK A01 T03210135  RH  034%=      5-min Rain = 0
KARS 261945Z 17016G21KT 32/14 A3013 RMK A01 T03200139  RH  035%=      5-min Rain = 0
KARS 261950Z 16016G24KT 32/14 A3013 RMK A01 T03230141  RH  035%=      5-min Rain = 0
KARS 261955Z 16015G23KT 33/13 A3013 RMK A01 T03250133  RH  033%=      5-min Rain = 0
KARS 262000Z 17015G21KT 32/13 A3013 RMK A01 T03240134  RH  033%=      5-min Rain = 0
KARS 262005Z 17016G22KT 32/14 A3013 RMK A01 T03230139  RH  034%=      5-min Rain = 0
KARS 262010Z 17013KT 32/14 A3013 RMK A01 T03220140  RH  035%=      5-min Rain = 0
KARS 262015Z 15014G19KT 32/14 A3013 RMK A01 T03240142  RH  035%=      5-min Rain = 0
KARS 262020Z 18017KT 32/14 A3013 RMK A01 T03220136  RH  034%=      5-min Rain = 0
KARS 262025Z 17012G20KT 32/14 A3013 RMK A01 T03220137  RH  034%=      5-min Rain = 0
KARS 262030Z 16014G19KT 33/14 A3013 RMK A01 T03260136  RH  033%=      5-min Rain = 0
KARS 262035Z 16014G27KT 32/14 A3012 RMK A01 T03240136  RH  033%=      5-min Rain = 0
KARS 262040Z 19014G20KT 32/14 A3012 RMK A01 T03240140  RH  034%=      5-min Rain = 0
KARS 262045Z 17014G20KT 33/14 A3012 RMK A01 T03250140  RH  034%=      5-min Rain = 0
KARS 262050Z 18016G22KT 33/13 A3012 RMK A01 T03260134  RH  032%=      5-min Rain = 0
KARS 262055Z 16014G21KT 33/14 A3012 RMK A01 T03260136  RH  033%=      5-min Rain = 0
KARS 262100Z 17015G20KT 33/14 A3012 RMK A01 T03250135  RH  033%=      5-min Rain = 0
KARS 262105Z 18016G22KT 32/13 A3012 RMK A01 T03230131  RH  032%=      5-min Rain = 0
KARS 262110Z 18013G18KT 32/14 A3012 RMK A01 T03240135  RH  033%=      5-min Rain = 0
KARS 262115Z 17014G20KT 33/13 A3012 RMK A01 T03250133  RH  032%=      5-min Rain = 0
KARS 262120Z 17014G22KT 33/14 A3011 RMK A01 T03250139  RH  034%=      5-min Rain = 0
KARS 262125Z 16016G21KT 32/15 A3011 RMK A01 T03240145  RH  035%=      5-min Rain = 0
KARS 262130Z 18015G22KT 33/15 A3011 RMK A01 T03250145  RH  035%=      5-min Rain = 0
KARS 262135Z 17015G21KT 32/15 A3011 RMK A01 T03220145  RH  036%=      5-min Rain = 0
KARS 262140Z 16015G21KT 33/14 A3011 RMK A01 T03260143  RH  035%=      5-min Rain = 0
KARS 262145Z 17017G23KT 33/14 A301 RMK A01 T03280143  RH  034%=      5-min Rain = 0
KARS 262150Z 16017KT 32/14 A3011 RMK A01 T03240142  RH  035%=      5-min Rain = 0
KARS 262155Z 17016G23KT 32/14 A301 RMK A01 T03240142  RH  035%=      5-min Rain = 0
KARS 262200Z 17015G21KT 32/14 A301 RMK A01 T03230140  RH  034%=      5-min Rain = 0
KARS 262205Z 16018G23KT 33/14 A301 RMK A01 T03260141  RH  034%=      5-min Rain = 0
KARS 262210Z 15017G23KT 33/14 A301 RMK A01 T03270143  RH  034%=      5-min Rain = 0
KARS 262215Z 15018G25KT 33/14 A301 RMK A01 T03260140  RH  034%=      5-min Rain = 0
KARS 262220Z 15017KT 33/15 A301 RMK A01 T03260146  RH  035%=      5-min Rain = 0
KARS 262225Z 15018G23KT 32/15 A301 RMK A01 T03240145  RH  035%=      5-min Rain = 0
KARS 262230Z 17017G22KT 32/15 A301 RMK A01 T03230145  RH  036%=      5-min Rain = 0
KARS 262235Z 17016G21KT 32/15 A301 RMK A01 T03200146  RH  037%=      5-min Rain = 0
KARS 262240Z 16017G23KT 32/14 A301 RMK A01 T03230142  RH  035%=      5-min Rain = 0
KARS 262245Z 16018G23KT 32/14 A301 RMK A01 T03190142  RH  036%=      5-min Rain = 0
KARS 262250Z 16018KT 32/14 A301 RMK A01 T03190137  RH  035%=      5-min Rain = 0
KARS 262255Z 15016KT 32/14 A301 RMK A01 T03170135  RH  034%=      5-min Rain = 0
KARS 262300Z 17014KT 31/14 A301 RMK A01 T03140138  RH  036%=      5-min Rain = 0
KARS 262305Z 17018KT 31/14 A301 RMK A01 T03140139  RH  036%=      5-min Rain = 0
KARS 262310Z 17017G22KT 31/14 A301 RMK A01 T03090137  RH  036%=      5-min Rain = 0
KARS 262315Z 16017KT 31/14 A3009 RMK A01 T03140144  RH  037%=      5-min Rain = 0
KARS 262320Z 16019G24KT 31/14 A3009 RMK A01 T03130142  RH  037%=      5-min Rain = 0
KARS 262325Z 16018KT 32/14 A3009 RMK A01 T03150144  RH  037%=      5-min Rain = 0
KARS 262330Z 16019KT 31/14 A3009 RMK A01 T03120144  RH  038%=      5-min Rain = 0
KARS 262335Z 16018G23KT 31/14 A3009 RMK A01 T03130144  RH  037%=      5-min Rain = 0
KARS 262340Z 16016KT 31/15 A3009 RMK A01 T03130146  RH  038%=      5-min Rain = 0
KARS 262345Z 16017KT 31/14 A3009 RMK A01 T03120143  RH  037%=      5-min Rain = 0
KARS 262350Z 16017KT 31/14 A3009 RMK A01 T03090140  RH  037%=      5-min Rain = 0
KARS 262355Z 17017KT 31/14 A301 RMK A01 T03060140  RH  038%=      5-min Rain = 0
KARS 270000Z 16016KT 30/13 A301 RMK A01 T03030133  RH  037%=      5-min Rain = 0
KARS 270005Z 16017G23KT 30/13 A301 RMK A01 T03040131  RH  036%=      5-min Rain = 0
KARS 270010Z 17016KT 30/13 A301 RMK A01 T03000125  RH  035%=      5-min Rain = 0
KARS 270015Z 16018KT 30/13 A301 RMK A01 T02990126  RH  036%=      5-min Rain = 0
KARS 270020Z 16017KT 30/13 A301 RMK A01 T02970126  RH  036%=      5-min Rain = 0
KARS 270025Z 16016KT 30/13 A301 RMK A01 T02970127  RH  037%=      5-min Rain = 0
KARS 270030Z 16016KT 30/13 A301 RMK A01 T02960131  RH  038%=      5-min Rain = 0
KARS 270035Z 16015KT 30/13 A3011 RMK A01 T02970129  RH  037%=      5-min Rain = 0
KARS 270040Z 16017KT 30/13 A3011 RMK A01 T02970133  RH  038%=      5-min Rain = 0
KARS 270045Z 16017KT 30/14 A3011 RMK A01 T02950136  RH  039%=      5-min Rain = 0
KARS 270050Z 17016KT 30/14 A3011 RMK A01 T02950140  RH  040%=      5-min Rain = 0
KARS 270055Z 16016KT 29/14 A3011 RMK A01 T02930137  RH  040%=      5-min Rain = 0
KARS 270100Z 16014KT 29/14 A3011 RMK A01 T02910136  RH  040%=      5-min Rain = 0
KARS 270105Z 16014KT 29/14 A301 RMK A01 T02880136  RH  041%=      5-min Rain = 0
KARS 270110Z 16014KT 29/13 A3011 RMK A01 T02860133  RH  041%=      5-min Rain = 0
KARS 270115Z 16015KT 29/13 A3011 RMK A01 T02850130  RH  040%=      5-min Rain = 0
KARS 270120Z 16014KT 28/13 A3011 RMK A01 T02840128  RH  040%=      5-min Rain = 0
KARS 270125Z 16013KT 28/13 A3011 RMK A01 T02810129  RH  041%=      5-min Rain = 0
KARS 270130Z 16013KT 28/13 A3011 RMK A01 T02800130  RH  041%=      5-min Rain = 0
KARS 270135Z 16012KT 28/13 A3011 RMK A01 T02780132  RH  042%=      5-min Rain = 0
KARS 270140Z 16012KT 28/13 A3012 RMK A01 T02770132  RH  043%=      5-min Rain = 0
KARS 270145Z 16012KT 28/13 A3012 RMK A01 T02760133  RH  043%=      5-min Rain = 0
KARS 270150Z 15010KT 27/13 A3012 RMK A01 T02740134  RH  044%=      5-min Rain = 0
KARS 270155Z 15010KT 27/13 A3012 RMK A01 T02720134  RH  044%=      5-min Rain = 0
KARS 270200Z 15009KT 27/14 A3012 RMK A01 T02710135  RH  045%=      5-min Rain = 0
KARS 270205Z 15009KT 27/13 A3012 RMK A01 T02690134  RH  045%=      5-min Rain = 0
KARS 270210Z 15010KT 27/13 A3013 RMK A01 T02680134  RH  045%=      5-min Rain = 0
KARS 270215Z 15009KT 27/14 A3013 RMK A01 T02670135  RH  046%=      5-min Rain = 0
KARS 270220Z 15010KT 27/14 A3014 RMK A01 T02670135  RH  046%=      5-min Rain = 0
KARS 270225Z 15009KT 27/14 A3014 RMK A01 T02660136  RH  046%=      5-min Rain = 0
KARS 270230Z 15009KT 27/14 A3014 RMK A01 T02650137  RH  047%=      5-min Rain = 0
KARS 270235Z 16009KT 26/14 A3015 RMK A01 T02640138  RH  048%=      5-min Rain = 0
KARS 270240Z 16009KT 26/14 A3015 RMK A01 T02630138  RH  048%=      5-min Rain = 0
KARS 270245Z 16008KT 26/14 A3015 RMK A01 T02620140  RH  049%=      5-min Rain = 0
KARS 270250Z 16007KT 26/14 A3015 RMK A01 T02600141  RH  050%=      5-min Rain = 0
KARS 270255Z 16007KT 26/14 A3016 RMK A01 T02580142  RH  051%=      5-min Rain = 0
KARS 270300Z 16007KT 26/14 A3016 RMK A01 T02570143  RH  052%=      5-min Rain = 0
KARS 270305Z 15006KT 26/14 A3017 RMK A01 T02560143  RH  052%=      5-min Rain = 0
KARS 270310Z 15006KT 25/14 A3017 RMK A01 T02540144  RH  053%=      5-min Rain = 0
KARS 270315Z 15006KT 25/15 A3017 RMK A01 T02520147  RH  054%=      5-min Rain = 0
KARS 270320Z 15006KT 25/15 A3018 RMK A01 T02510148  RH  055%=      5-min Rain = 0
KARS 270325Z 15006KT 25/15 A3018 RMK A01 T02510149  RH  056%=      5-min Rain = 0
KARS 270330Z 15006KT 25/15 A3018 RMK A01 T02500150  RH  056%=      5-min Rain = 0
KARS 270335Z 15006KT 25/15 A3019 RMK A01 T02500150  RH  056%=      5-min Rain = 0
KARS 270340Z 15006KT 25/15 A3019 RMK A01 T02500150  RH  056%=      5-min Rain = 0
KARS 270345Z 15006KT 25/15 A3019 RMK A01 T02490151  RH  057%=      5-min Rain = 0
KARS 270350Z 15006KT 25/15 A3019 RMK A01 T02480151  RH  058%=      5-min Rain = 0
KARS 270355Z 15007KT 25/15 A3019 RMK A01 T02470152  RH  058%=      5-min Rain = 0
KARS 270400Z 16008KT 25/15 A3019 RMK A01 T02460152  RH  058%=      5-min Rain = 0
KARS 270405Z 16008KT 24/15 A3018 RMK A01 T02440152  RH  059%=      5-min Rain = 0
KARS 270410Z 16008KT 24/15 A3019 RMK A01 T02420153  RH  060%=      5-min Rain = 0
KARS 270415Z 17007KT 24/15 A3019 RMK A01 T02410154  RH  061%=      5-min Rain = 0
KARS 270420Z 18006KT 24/15 A3019 RMK A01 T02380154  RH  062%=      5-min Rain = 0
KARS 270425Z 18007KT 23/16 A302 RMK A01 T02340155  RH  064%=      5-min Rain = 0
KARS 270430Z 17007KT 23/16 A3019 RMK A01 T02320155  RH  065%=      5-min Rain = 0
KARS 270435Z 17009KT 24/16 A3019 RMK A01 T02350156  RH  064%=      5-min Rain = 0
KARS 270440Z 16009KT 24/16 A3019 RMK A01 T02390156  RH  063%=      5-min Rain = 0
KARS 270445Z 16009KT 24/16 A3019 RMK A01 T02410155  RH  062%=      5-min Rain = 0
KARS 270450Z 16009KT 24/16 A3019 RMK A01 T02410155  RH  062%=      5-min Rain = 0
KARS 270455Z 15010KT 24/16 A3019 RMK A01 T02400155  RH  062%=      5-min Rain = 0

Page generated in 0.0124 seconds.